createdAt,value
2018-12-05T00:05:21.283Z,7.37
2018-12-05T00:15:26.327Z,5.73
2018-12-05T00:25:31.740Z,3.67
2018-12-05T00:35:36.620Z,5.77
2018-12-05T00:45:41.597Z,4.97
2018-12-05T00:55:46.478Z,2.80
2018-12-05T01:05:51.600Z,2.07
2018-12-05T01:15:56.358Z,4.40
2018-12-05T01:26:01.301Z,4.20
2018-12-05T01:36:06.727Z,1.80
2018-12-05T01:46:11.313Z,2.67
2018-12-05T01:56:16.067Z,3.17
2018-12-05T02:06:20.615Z,2.63
2018-12-05T02:16:25.666Z,3.30
2018-12-05T02:26:30.402Z,2.20
2018-12-05T02:36:36.022Z,4.50
2018-12-05T02:46:40.808Z,2.63
2018-12-05T02:56:45.552Z,3.80
2018-12-05T03:06:50.165Z,1.77
2018-12-05T03:16:54.941Z,2.60
2018-12-05T03:26:59.631Z,1.33
2018-12-05T03:37:04.621Z,1.60
2018-12-05T03:47:09.809Z,2.10
2018-12-05T03:57:14.502Z,1.73
2018-12-05T04:07:19.195Z,1.63
2018-12-05T04:17:23.917Z,1.43
2018-12-05T04:27:28.613Z,1.63
2018-12-05T04:37:33.362Z,1.30
2018-12-05T04:47:38.216Z,1.40
2018-12-05T04:57:43.267Z,1.50
2018-12-05T05:07:47.934Z,1.60
2018-12-05T05:17:52.613Z,1.17
2018-12-05T05:27:57.229Z,1.20
2018-12-05T05:38:01.932Z,1.33
2018-12-05T05:48:06.882Z,1.73
2018-12-05T05:58:11.493Z,1.47
2018-12-05T06:08:16.083Z,1.30
2018-12-05T06:18:20.698Z,1.20
2018-12-05T06:28:25.457Z,0.93
2018-12-05T06:38:30.457Z,1.00
2018-12-05T06:48:35.201Z,1.10
2018-12-05T06:58:40.203Z,1.10
2018-12-05T07:08:44.986Z,1.00
2018-12-05T07:18:49.768Z,1.43
2018-12-05T07:28:54.870Z,1.00
2018-12-05T07:38:59.530Z,1.10
2018-12-05T07:49:04.658Z,1.07
2018-12-05T07:59:09.411Z,1.20
2018-12-05T08:09:14.138Z,9.37
2018-12-05T08:19:19.156Z,6.70
2018-12-05T08:29:24.004Z,7.10
2018-12-05T08:39:28.621Z,12.33
2018-12-05T08:49:33.418Z,10.17
2018-12-05T08:59:38.063Z,13.07
2018-12-05T09:09:42.650Z,5.63
2018-12-05T09:19:47.452Z,12.40
2018-12-05T09:29:53.036Z,7.47
2018-12-05T09:39:58.652Z,6.73
2018-12-05T09:50:03.442Z,16.03
2018-12-05T10:00:10.495Z,12.53
2018-12-05T10:10:15.222Z,12.00
2018-12-05T10:20:20.076Z,10.40
2018-12-05T10:30:25.387Z,7.40
2018-12-05T10:40:30.802Z,9.67
2018-12-05T10:50:35.546Z,12.03
2018-12-05T11:00:46.374Z,8.97
2018-12-05T11:11:03.495Z,9.93
2018-12-05T11:21:13.924Z,7.90
2018-12-05T11:31:18.838Z,12.33
2018-12-05T11:41:23.573Z,11.20
2018-12-05T11:51:28.375Z,11.77
2018-12-05T12:01:33.046Z,14.57
2018-12-05T12:11:38.809Z,14.53
2018-12-05T12:21:44.959Z,15.10
2018-12-05T12:31:49.560Z,12.83
2018-12-05T12:41:54.472Z,19.07
2018-12-05T12:51:59.199Z,13.33
2018-12-05T13:02:03.749Z,15.10
2018-12-05T13:12:08.720Z,20.43
2018-12-05T13:22:13.539Z,18.80
2018-12-05T13:32:18.714Z,20.93
2018-12-05T13:42:23.469Z,17.97
2018-12-05T13:52:32.013Z,17.67
2018-12-05T14:02:37.821Z,21.80
2018-12-05T14:12:42.618Z,4.47
2018-12-05T14:22:47.244Z,6.47
2018-12-05T14:32:52.146Z,10.97
2018-12-05T14:42:56.943Z,13.87
2018-12-05T14:53:01.590Z,12.27
2018-12-05T15:03:08.657Z,18.37
2018-12-05T15:13:13.363Z,12.57
2018-12-05T15:23:18.060Z,14.70
2018-12-05T15:33:22.753Z,20.60
2018-12-05T15:43:27.676Z,26.07
2018-12-05T15:53:32.319Z,29.97
2018-12-05T16:03:43.191Z,25.80
2018-12-05T16:13:43.878Z,21.83
2018-12-05T16:23:48.503Z,19.77
2018-12-05T16:33:53.170Z,14.97
2018-12-05T16:43:58.524Z,20.53
2018-12-05T16:54:03.122Z,23.33
2018-12-05T17:04:07.894Z,25.63
2018-12-05T17:14:12.727Z,32.07
2018-12-05T17:24:18.033Z,19.23
2018-12-05T17:34:23.798Z,18.17
2018-12-05T17:44:29.461Z,19.03
2018-12-05T17:54:34.118Z,11.30
2018-12-05T18:04:39.181Z,13.60
2018-12-05T18:14:43.899Z,24.67
2018-12-05T18:24:49.198Z,21.17
2018-12-05T18:34:54.905Z,22.83
2018-12-05T18:44:59.695Z,14.60
2018-12-05T18:55:05.885Z,13.23
2018-12-05T19:05:11.266Z,16.00
2018-12-05T19:15:17.147Z,13.10
2018-12-05T19:25:23.327Z,23.60
2018-12-05T19:35:28.377Z,18.47
2018-12-05T19:45:34.018Z,14.53
2018-12-05T19:55:40.024Z,14.13
2018-12-05T20:05:45.082Z,11.77
2018-12-05T20:15:50.987Z,13.33
2018-12-05T20:25:55.875Z,15.00
2018-12-05T20:36:02.974Z,17.47
2018-12-05T20:46:08.589Z,9.00
2018-12-05T20:56:16.240Z,7.47
2018-12-05T21:06:21.759Z,8.63
2018-12-05T21:16:26.879Z,10.70
2018-12-05T21:26:31.924Z,8.93
2018-12-05T21:36:37.652Z,9.90
2018-12-05T21:46:44.806Z,8.10
2018-12-05T21:56:51.207Z,9.83
2018-12-05T22:06:57.259Z,7.60
2018-12-05T22:17:02.646Z,7.60
2018-12-05T22:27:07.397Z,6.87
2018-12-05T22:37:12.679Z,9.47
2018-12-05T22:47:17.335Z,9.03
2018-12-05T22:57:22.542Z,6.03
2018-12-05T23:07:28.222Z,4.47
2018-12-05T23:17:33.081Z,6.57
2018-12-05T23:27:38.011Z,6.67
2018-12-05T23:37:43.248Z,3.70
2018-12-05T23:47:48.853Z,8.77
2018-12-05T23:57:54.355Z,5.40
